Cheektowaga, New York
Current Conditions -  °F | °C
As of 9:54 AM on Saturday 25 Oct 2014 (Local Time) from KBUF Reporting Station
Broken Clouds Broken Clouds  
Wind Chill: 57°   Ceiling: 10000
Heat Index: 57°   Visibility: 10mi
Dew Point: 47°   Wind: 13mph
Humidity: 69%   Direction: 220°SW
Pressure: 29.78"   Gusts: NA
Location:  42.9°N, 78.74°W
Report Text: KBUF 251354Z 22011KT 10SM FEW020 FEW040 BKN100 BKN230 14/08 A2978 RMK AO2 SLP085 T01390083
Loading
Personal Weather Stations






























Interactive Weather Map
Tropical Storm Tracking
New forecast layout! Learn more

10-Day Weather Forecast

Advertisements
Track Severe Weather on mobile